^^
Paulen-Weather Station Historical Data
Daily Summary for May 12, 2022 Units:  English    Metric   Both
Daily Weekly Monthly Yearly Custom
  High: Low: Average:
Temperature: 53.6 °F 46.4 °F 50 °F
Dew Point: 48.2 °F 41 °F 44.8 °F
Humidity: 96% 70% 83%
Wind Speed: 21.7mph 3.1mph 10.1mph
Wind Gust: 16.2mph - -
Wind- - NW
Pressure: 29.8 in 29.5 in -
Precipitation: 0.03 in    
Historical Graphs
 
 
Tabular Data for May 12, 2022
Time Temperature Dew Point Pressure Wind Wind Speed Wind Gust Humidity Rainfall Rate (Hourly) solar
00:04 48.2 °F 46.4 °F 29.5 in NW 5.6 mph 3.7 mph 95% 0 in 0 W/m2
00:09 48.2 °F 46.4 °F 29.5 in NW 6.8 mph 4.3 mph 95% 0 in 0 W/m2
00:14 48.2 °F 46.4 °F 29.5 in NW 5.6 mph 4.3 mph 95% 0 in 0 W/m2
00:19 48.2 °F 46.4 °F 29.5 in NNW 6.2 mph 4.3 mph 95% 0 in 0 W/m2
00:24 48.2 °F 46.4 °F 29.5 in NW 3.1 mph 3.1 mph 95% 0 in 0 W/m2
00:29 48.2 °F 46.4 °F 29.5 in NNW 6.2 mph 5 mph 95% 0 in 0 W/m2
00:34 48.2 °F 46.4 °F 29.5 in NW 6.8 mph 5 mph 95% 0 in 0 W/m2
00:39 48.2 °F 46.4 °F 29.5 in NNW 8.1 mph 6.2 mph 95% 0 in 0 W/m2
00:44 48.2 °F 46.4 °F 29.5 in N 8.7 mph 6.8 mph 96% 0 in 0 W/m2
00:49 48.2 °F 46.4 °F 29.5 in NNW 6.2 mph 4.3 mph 96% 0 in 0 W/m2
00:54 48.2 °F 46.4 °F 29.5 in NNW 5 mph 3.7 mph 96% 0 in 0 W/m2
00:59 48.2 °F 46.4 °F 29.5 in NNW 5 mph 4.3 mph 96% 0 in 0 W/m2
01:04 48.2 °F 46.4 °F 29.5 in NW 5 mph 4.3 mph 96% 0 in 0 W/m2
01:09 48.2 °F 46.4 °F 29.5 in WNW 3.1 mph 1.9 mph 96% 0 in 0 W/m2
01:14 48.2 °F 46.4 °F 29.5 in WNW 3.1 mph 3.1 mph 96% 0 in 0 W/m2
01:19 48.2 °F 46.4 °F 29.5 in NW 3.1 mph 2.5 mph 96% 0 in 0 W/m2
01:24 48.2 °F 46.4 °F 29.5 in NW 4.3 mph 4.3 mph 96% 0 in 0 W/m2
01:29 48.2 °F 46.4 °F 29.5 in NW 5.6 mph 3.7 mph 95% 0 in 0 W/m2
01:34 48.2 °F 46.4 °F 29.5 in NW 5 mph 3.7 mph 95% 0 in 0 W/m2
01:39 48.2 °F 46.4 °F 29.5 in NW 5.6 mph 3.7 mph 95% 0 in 0 W/m2
01:44 48.2 °F 46.4 °F 29.5 in NNW 4.3 mph 2.5 mph 95% 0 in 0 W/m2
01:49 48.2 °F 46.4 °F 29.5 in NW 8.7 mph 5 mph 94% 0 in 0 W/m2
01:54 48.2 °F 46.4 °F 29.5 in WNW 6.2 mph 3.7 mph 94% 0 in 0 W/m2
01:59 48.2 °F 46.4 °F 29.5 in WNW 4.3 mph 3.1 mph 93% 0 in 0 W/m2
02:04 48.2 °F 46.4 °F 29.5 in NW 4.3 mph 2.5 mph 93% 0 in 0 W/m2
02:09 48.2 °F 46.4 °F 29.5 in NW 5 mph 3.7 mph 92% 0 in 0 W/m2
02:14 48.2 °F 44.6 °F 29.5 in NW 8.7 mph 7.5 mph 92% 0 in 0 W/m2
02:19 48.2 °F 44.6 °F 29.5 in NNW 8.7 mph 6.2 mph 91% 0 in 0 W/m2
02:24 48.2 °F 44.6 °F 29.5 in NW 8.7 mph 6.2 mph 90% 0 in 0 W/m2
02:29 48.2 °F 44.6 °F 29.5 in NW 8.7 mph 6.8 mph 89% 0 in 0 W/m2
02:34 48.2 °F 44.6 °F 29.5 in NW 6.2 mph 3.7 mph 89% 0 in 0 W/m2
02:39 48.2 °F 44.6 °F 29.5 in WNW 5.6 mph 3.7 mph 88% 0 in 0 W/m2
02:44 48.2 °F 44.6 °F 29.5 in WNW 5.6 mph 3.7 mph 88% 0 in 0 W/m2
02:49 48.2 °F 44.6 °F 29.5 in WNW 6.8 mph 5 mph 88% 0 in 0 W/m2
02:54 48.2 °F 44.6 °F 29.5 in NW 6.2 mph 3.7 mph 88% 0 in 0 W/m2
02:59 48.2 °F 44.6 °F 29.5 in NW 6.8 mph 6.8 mph 88% 0 in 0 W/m2
03:04 48.2 °F 44.6 °F 29.5 in NW 8.7 mph 5 mph 88% 0 in 0 W/m2
03:09 48.2 °F 44.6 °F 29.5 in WNW 8.1 mph 6.8 mph 88% 0 in 0 W/m2
03:14 48.2 °F 44.6 °F 29.5 in NW 8.7 mph 5 mph 88% 0 in 0 W/m2
03:19 48.2 °F 44.6 °F 29.5 in NW 8.7 mph 6.8 mph 88% 0 in 0 W/m2
03:24 48.2 °F 44.6 °F 29.5 in NNW 9.3 mph 5 mph 88% 0 in 0 W/m2
03:29 48.2 °F 44.6 °F 29.5 in NW 6.8 mph 3.7 mph 88% 0 in 0 W/m2
03:34 48.2 °F 44.6 °F 29.5 in NW 10.6 mph 5.6 mph 88% 0 in 0 W/m2
03:39 48.2 °F 44.6 °F 29.5 in WNW 8.7 mph 6.2 mph 88% 0 in 0 W/m2
03:44 48.2 °F 44.6 °F 29.5 in NW 9.9 mph 6.2 mph 87% 0 in 0 W/m2
03:49 46.4 °F 42.8 °F 29.5 in NW 8.1 mph 5.6 mph 87% 0 in 0 W/m2
03:54 48.2 °F 42.8 °F 29.5 in WNW 5 mph 4.3 mph 87% 0 in 0 W/m2
03:59 46.4 °F 42.8 °F 29.5 in WNW 3.7 mph 3.7 mph 87% 0 in 0 W/m2
04:04 48.2 °F 42.8 °F 29.5 in NNW 4.3 mph 3.1 mph 87% 0 in 0 W/m2
04:09 48.2 °F 42.8 °F 29.5 in NW 6.8 mph 3.1 mph 87% 0 in 0 W/m2
04:14 48.2 °F 42.8 °F 29.5 in NNW 5.6 mph 5 mph 87% 0 in 0 W/m2
04:19 48.2 °F 42.8 °F 29.6 in NW 5.6 mph 3.7 mph 86% 0 in 0 W/m2
04:24 46.4 °F 42.8 °F 29.6 in NW 6.8 mph 5 mph 86% 0 in 0 W/m2
04:29 48.2 °F 42.8 °F 29.6 in NW 4.3 mph 3.1 mph 86% 0 in 0 W/m2
04:34 48.2 °F 42.8 °F 29.6 in NNW 6.2 mph 6.8 mph 85% 0 in 0 W/m2
04:39 48.2 °F 42.8 °F 29.6 in NW 8.7 mph 6.2 mph 85% 0 in 0 W/m2
04:44 48.2 °F 42.8 °F 29.6 in NW 9.9 mph 7.5 mph 84% 0 in 0 W/m2
04:49 48.2 °F 42.8 °F 29.6 in NW 13 mph 9.9 mph 84% 0 in 0 W/m2
04:54 48.2 °F 42.8 °F 29.6 in WNW 10.6 mph 10.6 mph 84% 0 in 0 W/m2
04:59 48.2 °F 42.8 °F 29.6 in NW 10.6 mph 7.5 mph 84% 0 in 0 W/m2
05:04 48.2 °F 42.8 °F 29.6 in WNW 9.3 mph 6.2 mph 84% 0 in 0 W/m2
05:09 48.2 °F 42.8 °F 29.6 in NW 13 mph 7.5 mph 84% 0 in 5 W/m2
05:14 48.2 °F 42.8 °F 29.6 in WNW 9.9 mph 6.2 mph 84% 0 in 7 W/m2
05:19 48.2 °F 42.8 °F 29.6 in NW 6.8 mph 5.6 mph 84% 0 in 12 W/m2
05:24 48.2 °F 42.8 °F 29.6 in WNW 6.2 mph 5 mph 84% 0 in 16 W/m2
05:29 48.2 °F 42.8 °F 29.6 in NW 13.7 mph 8.7 mph 83% 0 in 18 W/m2
05:34 48.2 °F 42.8 °F 29.6 in NW 9.3 mph 6.8 mph 83% 0 in 23 W/m2
05:39 48.2 °F 42.8 °F 29.6 in WNW 7.5 mph 5.6 mph 83% 0 in 35 W/m2
05:44 48.2 °F 42.8 °F 29.6 in WNW 8.1 mph 6.8 mph 82% 0 in 35 W/m2
05:49 48.2 °F 42.8 °F 29.6 in NW 10.6 mph 6.8 mph 82% 0 in 49 W/m2
05:54 48.2 °F 42.8 °F 29.6 in NW 6.8 mph 5.6 mph 82% 0 in 49 W/m2
05:59 48.2 °F 42.8 °F 29.6 in WNW 9.3 mph 5.6 mph 82% 0 in 67 W/m2
06:04 48.2 °F 42.8 °F 29.6 in WNW 13 mph 12.4 mph 81% 0 in 76 W/m2
06:09 48.2 °F 42.8 °F 29.6 in WNW 10.6 mph 9.3 mph 80% 0 in 81 W/m2
06:14 48.2 °F 42.8 °F 29.6 in NW 13 mph 8.7 mph 79% 0 in 91 W/m2
06:19 48.2 °F 42.8 °F 29.6 in WNW 10.6 mph 7.5 mph 79% 0 in 102 W/m2
06:24 48.2 °F 41 °F 29.6 in WNW 9.9 mph 6.8 mph 78% 0 in 109 W/m2
06:29 48.2 °F 41 °F 29.6 in NW 9.9 mph 8.1 mph 78% 0 in 116 W/m2
06:34 48.2 °F 41 °F 29.6 in NW 11.8 mph 9.9 mph 77% 0 in 125 W/m2
06:39 48.2 °F 41 °F 29.6 in WNW 13 mph 9.9 mph 77% 0 in 134 W/m2
06:44 48.2 °F 41 °F 29.6 in NW 10.6 mph 6.8 mph 77% 0 in 144 W/m2
06:49 48.2 °F 41 °F 29.6 in NW 9.9 mph 6.2 mph 76% 0 in 149 W/m2
06:54 48.2 °F 41 °F 29.6 in NW 9.9 mph 6.8 mph 76% 0 in 162 W/m2
06:59 48.2 °F 41 °F 29.6 in WNW 10.6 mph 7.5 mph 76% 0 in 167 W/m2
07:04 48.2 °F 41 °F 29.6 in NW 9.3 mph 7.5 mph 75% 0 in 199 W/m2
07:09 48.2 °F 41 °F 29.6 in N 11.8 mph 6.2 mph 75% 0 in 199 W/m2
07:14 48.2 °F 41 °F 29.6 in NW 9.3 mph 7.5 mph 76% 0 in 214 W/m2
07:19 50 °F 42.8 °F 29.6 in NW 8.1 mph 5.6 mph 76% 0 in 221 W/m2
07:24 50 °F 42.8 °F 29.6 in WNW 9.3 mph 5.6 mph 76% 0 in 230 W/m2
07:29 50 °F 42.8 °F 29.6 in NW 9.9 mph 6.8 mph 76% 0 in 243 W/m2
07:34 50 °F 42.8 °F 29.6 in NW 9.3 mph 6.2 mph 75% 0 in 255 W/m2
07:39 50 °F 42.8 °F 29.6 in NW 8.1 mph 5 mph 75% 0 in 264 W/m2
07:44 50 °F 42.8 °F 29.6 in NW 13.7 mph 9.3 mph 74% 0 in 274 W/m2
07:49 50 °F 42.8 °F 29.6 in NW 11.2 mph 6.8 mph 74% 0 in 288 W/m2
07:54 51.8 °F 42.8 °F 29.6 in WNW 11.2 mph 7.5 mph 74% 0 in 299 W/m2
07:59 51.8 °F 42.8 °F 29.6 in WNW 8.7 mph 8.1 mph 74% 0 in 330 W/m2
08:04 51.8 °F 42.8 °F 29.6 in NW 11.8 mph 8.7 mph 74% 0 in 343 W/m2
08:09 51.8 °F 42.8 °F 29.6 in NW 11.2 mph 8.7 mph 74% 0 in 348 W/m2
08:14 51.8 °F 42.8 °F 29.6 in NW 16.2 mph 9.9 mph 73% 0 in 346 W/m2
08:19 51.8 °F 42.8 °F 29.7 in NW 9.3 mph 8.1 mph 73% 0 in 376 W/m2
08:24 51.8 °F 42.8 °F 29.7 in WNW 10.6 mph 6.8 mph 73% 0 in 383 W/m2
08:29 51.8 °F 44.6 °F 29.7 in NW 9.9 mph 6.8 mph 73% 0 in 401 W/m2
08:34 51.8 °F 44.6 °F 29.7 in NW 8.1 mph 5 mph 73% 0 in 415 W/m2
08:39 51.8 °F 44.6 °F 29.7 in NW 10.6 mph 8.7 mph 73% 0 in 471 W/m2
08:44 51.8 °F 44.6 °F 29.7 in NW 14.9 mph 10.6 mph 73% 0 in 471 W/m2
08:49 51.8 °F 44.6 °F 29.7 in N 11.8 mph 8.1 mph 74% 0 in 197 W/m2
08:54 51.8 °F 44.6 °F 29.7 in NW 9.9 mph 6.2 mph 76% 0 in 436 W/m2
08:59 51.8 °F 44.6 °F 29.7 in WNW 12.4 mph 8.1 mph 77% 0 in 448 W/m2
09:04 51.8 °F 44.6 °F 29.7 in NW 14.3 mph 8.7 mph 77% 0 in 457 W/m2
09:09 51.8 °F 44.6 °F 29.7 in NW 11.2 mph 8.7 mph 76% 0 in 469 W/m2
09:14 53.6 °F 44.6 °F 29.7 in WNW 14.3 mph 8.7 mph 75% 0 in 480 W/m2
09:19 53.6 °F 44.6 °F 29.7 in NW 13 mph 8.7 mph 74% 0 in 487 W/m2
09:24 53.6 °F 44.6 °F 29.7 in NW 9.3 mph 6.2 mph 73% 0 in 497 W/m2
09:29 53.6 °F 44.6 °F 29.7 in NW 8.7 mph 6.8 mph 73% 0 in 348 W/m2
09:34 53.6 °F 44.6 °F 29.7 in NW 13 mph 9.3 mph 71% 0 in 269 W/m2
09:39 51.8 °F 44.6 °F 29.7 in NNW 16.2 mph 12.4 mph 72% 0 in 269 W/m2
09:44 51.8 °F 44.6 °F 29.7 in NW 12.4 mph 9.9 mph 72% 0 in 227 W/m2
09:49 53.6 °F 44.6 °F 29.7 in NW 10.6 mph 5.6 mph 72% 0 in 613 W/m2
09:54 53.6 °F 44.6 °F 29.7 in NNW 10.6 mph 8.1 mph 71% 0 in 701 W/m2
09:59 53.6 °F 44.6 °F 29.7 in NW 12.4 mph 6.8 mph 70% 0 in 701 W/m2
10:04 53.6 °F 44.6 °F 29.7 in NW 11.8 mph 8.1 mph 70% 0 in 308 W/m2
10:09 53.6 °F 44.6 °F 29.7 in NW 11.8 mph 8.7 mph 70% 0 in 278 W/m2
10:14 53.6 °F 44.6 °F 29.7 in NW 9.9 mph 8.1 mph 72% 0 in 640 W/m2
10:19 53.6 °F 44.6 °F 29.7 in NNW 14.9 mph 9.9 mph 74% 0 in 640 W/m2
10:24 53.6 °F 44.6 °F 29.7 in NW 10.6 mph 8.1 mph 75% 0 in 742 W/m2
10:29 53.6 °F 44.6 °F 29.7 in NW 11.8 mph 9.3 mph 74% 0 in 779 W/m2
10:34 53.6 °F 44.6 °F 29.7 in NW 11.2 mph 8.1 mph 72% 0 in 779 W/m2
10:39 53.6 °F 46.4 °F 29.7 in NW 11.2 mph 9.3 mph 73% 0 in 350 W/m2
10:44 53.6 °F 46.4 °F 29.7 in WNW 9.3 mph 5.6 mph 75% 0 in 197 W/m2
10:49 53.6 °F 44.6 °F 29.7 in NW 9.3 mph 6.8 mph 75% 0 in 134 W/m2
10:54 51.8 °F 44.6 °F 29.7 in NW 12.4 mph 9.9 mph 76% 0 in 141 W/m2
10:59 51.8 °F 44.6 °F 29.7 in NNW 6.2 mph 4.3 mph 76% 0 in 272 W/m2
11:04 51.8 °F 44.6 °F 29.7 in NW 9.3 mph 8.1 mph 77% 0 in 253 W/m2
11:09 51.8 °F 44.6 °F 29.7 in NNW 9.9 mph 9.3 mph 78% 0 in 135 W/m2
11:14 50 °F 44.6 °F 29.7 in NW 9.3 mph 7.5 mph 79% 0 in 120 W/m2
11:19 50 °F 44.6 °F 29.7 in NW 6.8 mph 5.6 mph 79% 0 in 171 W/m2
11:24 50 °F 44.6 °F 29.7 in NW 6.8 mph 6.2 mph 80% 0 in 171 W/m2
11:29 50 °F 44.6 °F 29.7 in NW 5.6 mph 4.3 mph 79% 0 in 232 W/m2
11:34 51.8 °F 44.6 °F 29.7 in NW 6.2 mph 4.3 mph 79% 0 in 250 W/m2
11:39 51.8 °F 44.6 °F 29.7 in NW 11.2 mph 6.8 mph 78% 0 in 237 W/m2
11:44 51.8 °F 44.6 °F 29.7 in NNW 13 mph 11.2 mph 77% 0 in 301 W/m2
11:49 51.8 °F 44.6 °F 29.7 in NNW 12.4 mph 8.7 mph 76% 0 in 316 W/m2
11:54 51.8 °F 44.6 °F 29.7 in NNW 14.3 mph 10.6 mph 76% 0 in 313 W/m2
11:59 51.8 °F 46.4 °F 29.7 in NNW 14.3 mph 11.2 mph 78% 0 in 322 W/m2
12:04 51.8 °F 46.4 °F 29.7 in N 14.9 mph 10.6 mph 81% 0 in 330 W/m2
12:09 51.8 °F 46.4 °F 29.7 in NNW 14.3 mph 10.6 mph 84% 0 in 290 W/m2
12:14 50 °F 46.4 °F 29.7 in NNW 16.2 mph 10.6 mph 85% 0 in 427 W/m2
12:19 50 °F 46.4 °F 29.7 in NW 13 mph 8.7 mph 86% 0 in 348 W/m2
12:24 51.8 °F 48.2 °F 29.7 in N 12.4 mph 5.6 mph 87% 0 in 376 W/m2
12:29 51.8 °F 46.4 °F 29.7 in NNW 11.8 mph 6.8 mph 85% 0 in 429 W/m2
12:34 51.8 °F 46.4 °F 29.7 in NNW 11.8 mph 8.7 mph 84% 0 in 867 W/m2
12:39 51.8 °F 46.4 °F 29.7 in NNW 16.2 mph 11.2 mph 81% 0 in 956 W/m2
12:44 51.8 °F 46.4 °F 29.7 in NNW 14.9 mph 9.9 mph 80% 0 in 373 W/m2
12:49 51.8 °F 46.4 °F 29.8 in N 14.3 mph 13.7 mph 81% 0.01 in 250 W/m2
12:54 50 °F 46.4 °F 29.7 in NNW 12.4 mph 8.7 mph 85% 0.01 in 250 W/m2
12:59 50 °F 46.4 °F 29.8 in NNW 11.2 mph 9.9 mph 86% 0.01 in 200 W/m2
13:04 50 °F 46.4 °F 29.8 in NNW 10.6 mph 6.8 mph 86% 0.01 in 253 W/m2
13:09 50 °F 46.4 °F 29.8 in NNW 7.5 mph 6.8 mph 87% 0.01 in 269 W/m2
13:14 50 °F 46.4 °F 29.8 in NW 8.7 mph 4.3 mph 87% 0.01 in 221 W/m2
13:19 50 °F 46.4 °F 29.8 in NNW 11.2 mph 8.1 mph 86% 0.02 in 104 W/m2
13:24 50 °F 44.6 °F 29.8 in NNW 13.7 mph 10.6 mph 85% 0.02 in 151 W/m2
13:29 48.2 °F 44.6 °F 29.8 in NNW 9.3 mph 5.6 mph 86% 0.02 in 172 W/m2
13:34 48.2 °F 44.6 °F 29.8 in NNW 6.2 mph 5.6 mph 87% 0.02 in 299 W/m2
13:39 48.2 °F 46.4 °F 29.8 in N 8.7 mph 6.2 mph 88% 0.02 in 299 W/m2
13:44 48.2 °F 46.4 °F 29.8 in NNW 13 mph 13 mph 89% 0.02 in 188 W/m2
13:49 48.2 °F 46.4 °F 29.8 in N 14.9 mph 11.2 mph 89% 0.02 in 232 W/m2
13:54 48.2 °F 46.4 °F 29.8 in N 11.2 mph 9.3 mph 90% 0.02 in 232 W/m2
13:59 48.2 °F 46.4 °F 29.8 in N 12.4 mph 9.3 mph 91% 0.02 in 541 W/m2
14:04 48.2 °F 46.4 °F 29.8 in N 13.7 mph 11.8 mph 91% 0.02 in 230 W/m2
14:09 48.2 °F 46.4 °F 29.8 in N 14.9 mph 11.8 mph 91% 0.02 in 675 W/m2
14:14 50 °F 48.2 °F 29.8 in N 18 mph 11.8 mph 91% 0.02 in 765 W/m2
14:19 50 °F 48.2 °F 29.8 in NNW 11.2 mph 8.7 mph 91% 0.02 in 800 W/m2
14:24 50 °F 48.2 °F 29.8 in N 16.2 mph 12.4 mph 89% 0.02 in 798 W/m2
14:29 51.8 °F 48.2 °F 29.8 in N 13.7 mph 10.6 mph 89% 0.01 in 756 W/m2
14:34 51.8 °F 48.2 °F 29.8 in N 14.9 mph 11.2 mph 88% 0.01 in 735 W/m2
14:39 51.8 °F 48.2 °F 29.8 in N 13 mph 8.1 mph 87% 0.01 in 745 W/m2
14:44 51.8 °F 48.2 °F 29.8 in N 13 mph 10.6 mph 86% 0.01 in 737 W/m2
14:49 51.8 °F 48.2 °F 29.8 in N 12.4 mph 9.3 mph 85% 0.01 in 770 W/m2
14:54 51.8 °F 48.2 °F 29.8 in N 13.7 mph 10.6 mph 85% 0.01 in 773 W/m2
14:59 51.8 °F 48.2 °F 29.8 in N 11.8 mph 11.2 mph 83% 0.01 in 784 W/m2
15:04 51.8 °F 48.2 °F 29.8 in N 11.2 mph 7.5 mph 83% 0 in 784 W/m2
15:09 51.8 °F 48.2 °F 29.8 in N 10.6 mph 8.1 mph 83% 0 in 874 W/m2
15:14 51.8 °F 46.4 °F 29.8 in NNW 14.9 mph 10.6 mph 82% 0 in 800 W/m2
15:19 51.8 °F 46.4 °F 29.8 in N 13 mph 8.7 mph 83% 0 in 420 W/m2
15:24 51.8 °F 46.4 °F 29.8 in NNW 12.4 mph 11.8 mph 83% 0 in 274 W/m2
15:29 51.8 °F 46.4 °F 29.8 in N 16.8 mph 11.8 mph 82% 0 in 773 W/m2
15:34 51.8 °F 46.4 °F 29.8 in N 14.9 mph 13 mph 82% 0 in 891 W/m2
15:39 51.8 °F 46.4 °F 29.8 in N 16.2 mph 10.6 mph 81% 0 in 826 W/m2
15:44 53.6 °F 46.4 °F 29.8 in N 13 mph 9.9 mph 80% 0 in 754 W/m2
15:49 53.6 °F 46.4 °F 29.8 in N 14.3 mph 10.6 mph 78% 0 in 802 W/m2
15:54 53.6 °F 46.4 °F 29.8 in N 14.3 mph 9.3 mph 78% 0 in 802 W/m2
15:59 53.6 °F 46.4 °F 29.8 in NNW 13 mph 9.9 mph 77% 0 in 763 W/m2
16:04 53.6 °F 46.4 °F 29.8 in NNW 10.6 mph 8.1 mph 75% 0 in 649 W/m2
16:09 53.6 °F 46.4 °F 29.8 in N 16.2 mph 13 mph 75% 0 in 636 W/m2
16:14 53.6 °F 46.4 °F 29.8 in N 13.7 mph 10.6 mph 78% 0 in 657 W/m2
16:19 53.6 °F 46.4 °F 29.8 in N 13.7 mph 11.2 mph 79% 0 in 729 W/m2
16:24 53.6 °F 46.4 °F 29.8 in N 17.4 mph 14.3 mph 79% 0 in 223 W/m2
16:29 51.8 °F 46.4 °F 29.8 in N 18.6 mph 14.3 mph 81% 0 in 649 W/m2
16:34 51.8 °F 46.4 °F 29.8 in N 15.5 mph 12.4 mph 81% 0 in 649 W/m2
16:39 51.8 °F 46.4 °F 29.8 in N 15.5 mph 12.4 mph 79% 0 in 606 W/m2
16:44 53.6 °F 46.4 °F 29.8 in N 16.8 mph 13.7 mph 78% 0 in 606 W/m2
16:49 51.8 °F 46.4 °F 29.8 in N 16.8 mph 15.5 mph 78% 0 in 629 W/m2
16:54 51.8 °F 46.4 °F 29.8 in N 21.7 mph 16.2 mph 79% 0 in 629 W/m2
16:59 51.8 °F 46.4 °F 29.8 in N 15.5 mph 13 mph 78% 0 in 594 W/m2
17:04 53.6 °F 46.4 °F 29.8 in N 15.5 mph 11.2 mph 77% 0 in 594 W/m2
17:09 53.6 °F 46.4 °F 29.8 in NNW 13.7 mph 11.2 mph 77% 0 in 601 W/m2
17:14 53.6 °F 46.4 °F 29.8 in N 15.5 mph 11.2 mph 77% 0 in 587 W/m2
17:19 51.8 °F 46.4 °F 29.8 in N 13.7 mph 10.6 mph 78% 0 in 519 W/m2
17:24 51.8 °F 46.4 °F 29.8 in N 14.3 mph 8.7 mph 79% 0 in 522 W/m2
17:29 51.8 °F 46.4 °F 29.8 in N 14.9 mph 9.9 mph 78% 0 in 538 W/m2
17:34 51.8 °F 46.4 °F 29.8 in N 15.5 mph 11.8 mph 78% 0 in 476 W/m2
17:39 51.8 °F 46.4 °F 29.8 in N 14.9 mph 9.9 mph 79% 0 in 471 W/m2
17:44 51.8 °F 46.4 °F 29.8 in N 18 mph 13.7 mph 80% 0 in 492 W/m2
17:49 51.8 °F 46.4 °F 29.8 in N 16.8 mph 13.7 mph 81% 0 in 454 W/m2
17:54 51.8 °F 46.4 °F 29.8 in N 15.5 mph 9.3 mph 81% 0 in 473 W/m2
17:59 51.8 °F 44.6 °F 29.8 in N 14.9 mph 10.6 mph 81% 0 in 510 W/m2
18:04 51.8 °F 46.4 °F 29.8 in N 13 mph 9.3 mph 80% 0 in 432 W/m2
18:09 51.8 °F 44.6 °F 29.8 in N 14.9 mph 9.3 mph 80% 0 in 434 W/m2
18:14 51.8 °F 44.6 °F 29.8 in N 11.8 mph 9.3 mph 79% 0 in 420 W/m2
18:19 51.8 °F 46.4 °F 29.8 in NNW 10.6 mph 6.8 mph 78% 0 in 404 W/m2
18:24 51.8 °F 46.4 °F 29.8 in NNW 11.2 mph 6.2 mph 76% 0 in 374 W/m2
18:29 53.6 °F 44.6 °F 29.8 in NNW 11.2 mph 7.5 mph 75% 0 in 373 W/m2
18:34 53.6 °F 44.6 °F 29.8 in ENE 11.8 mph 8.7 mph 74% 0 in 343 W/m2
18:39 53.6 °F 44.6 °F 29.8 in NW 11.2 mph 8.7 mph 74% 0 in 329 W/m2
18:44 53.6 °F 44.6 °F 29.8 in NNW 9.9 mph 8.1 mph 74% 0 in 325 W/m2
18:49 53.6 °F 44.6 °F 29.8 in NNW 10.6 mph 7.5 mph 74% 0 in 373 W/m2
18:54 51.8 °F 44.6 °F 29.8 in NNW 13.7 mph 8.7 mph 74% 0 in 355 W/m2
18:59 51.8 °F 44.6 °F 29.8 in NNE 8.1 mph 6.2 mph 75% 0 in 338 W/m2
19:04 51.8 °F 44.6 °F 29.8 in NNW 11.2 mph 8.1 mph 74% 0 in 271 W/m2
19:09 51.8 °F 44.6 °F 29.8 in NNW 13 mph 8.1 mph 74% 0 in 253 W/m2
19:14 51.8 °F 44.6 °F 29.8 in NW 9.9 mph 5.6 mph 75% 0 in 246 W/m2
19:19 51.8 °F 44.6 °F 29.8 in NNW 10.6 mph 8.7 mph 75% 0 in 246 W/m2
19:24 51.8 °F 44.6 °F 29.8 in NW 8.1 mph 6.2 mph 76% 0 in 121 W/m2
19:29 51.8 °F 44.6 °F 29.8 in NNW 9.9 mph 6.8 mph 77% 0 in 144 W/m2
19:34 51.8 °F 44.6 °F 29.8 in NNW 11.2 mph 7.5 mph 76% 0 in 144 W/m2
19:39 50 °F 42.8 °F 29.8 in NNW 9.3 mph 6.2 mph 76% 0 in 241 W/m2
19:44 51.8 °F 44.6 °F 29.8 in NW 9.9 mph 5.6 mph 76% 0 in 250 W/m2
19:49 51.8 °F 44.6 °F 29.8 in NNW 10.6 mph 6.2 mph 75% 0 in 193 W/m2
19:54 51.8 °F 44.6 °F 29.8 in N 9.9 mph 5.6 mph 75% 0 in 162 W/m2
19:59 51.8 °F 44.6 °F 29.8 in NNW 11.8 mph 7.5 mph 76% 0 in 134 W/m2
20:04 50 °F 44.6 °F 29.8 in NNW 8.1 mph 6.8 mph 77% 0 in 113 W/m2
20:09 50 °F 44.6 °F 29.8 in NNW 7.5 mph 5.6 mph 79% 0 in 120 W/m2
20:14 50 °F 44.6 °F 29.8 in NNW 8.1 mph 5 mph 80% 0 in 120 W/m2
20:19 50 °F 44.6 °F 29.8 in WNW 8.1 mph 5 mph 80% 0 in 102 W/m2
20:24 50 °F 44.6 °F 29.8 in NNW 8.7 mph 5.6 mph 81% 0 in 79 W/m2
20:29 50 °F 44.6 °F 29.8 in NNW 9.3 mph 7.5 mph 82% 0 in 70 W/m2
20:34 50 °F 44.6 °F 29.8 in NNW 11.2 mph 5.6 mph 83% 0 in 44 W/m2
20:39 48.2 °F 44.6 °F 29.8 in NNW 8.7 mph 6.2 mph 84% 0 in 37 W/m2
20:44 48.2 °F 44.6 °F 29.8 in NNW 9.3 mph 6.8 mph 84% 0 in 33 W/m2
20:49 48.2 °F 44.6 °F 29.8 in NNW 8.7 mph 6.8 mph 84% 0 in 33 W/m2
20:54 48.2 °F 44.6 °F 29.8 in NNW 8.7 mph 6.2 mph 84% 0 in 37 W/m2
20:59 48.2 °F 44.6 °F 29.8 in NW 6.8 mph 4.3 mph 84% 0 in 37 W/m2
21:04 48.2 °F 44.6 °F 29.8 in NW 10.6 mph 6.8 mph 84% 0 in 28 W/m2
21:09 48.2 °F 44.6 °F 29.8 in WNW 8.1 mph 5.6 mph 84% 0 in 25 W/m2
21:14 48.2 °F 44.6 °F 29.8 in NW 9.3 mph 6.8 mph 84% 0 in 21 W/m2
21:19 48.2 °F 44.6 °F 29.8 in WNW 8.7 mph 6.8 mph 84% 0 in 19 W/m2
21:24 48.2 °F 44.6 °F 29.8 in NW 9.9 mph 7.5 mph 85% 0 in 16 W/m2
21:29 48.2 °F 44.6 °F 29.8 in NW 6.8 mph 6.8 mph 85% 0 in 14 W/m2
21:34 48.2 °F 44.6 °F 29.8 in WNW 8.7 mph 6.2 mph 85% 0 in 11 W/m2
21:39 48.2 °F 44.6 °F 29.8 in NNW 8.7 mph 7.5 mph 85% 0 in 9 W/m2
21:44 48.2 °F 44.6 °F 29.8 in NW 6.8 mph 5 mph 85% 0 in 5 W/m2
21:49 48.2 °F 44.6 °F 29.8 in WNW 7.5 mph 3.7 mph 85% 0 in 0 W/m2
21:54 48.2 °F 44.6 °F 29.8 in NW 5 mph 3.1 mph 85% 0 in 0 W/m2
21:59 48.2 °F 44.6 °F 29.8 in NW 5.6 mph 3.7 mph 85% 0 in 0 W/m2
22:04 48.2 °F 44.6 °F 29.8 in NNW 5.6 mph 5.6 mph 85% 0 in 0 W/m2
22:09 48.2 °F 44.6 °F 29.8 in WNW 8.7 mph 6.8 mph 85% 0 in 0 W/m2
22:14 48.2 °F 44.6 °F 29.8 in NNW 6.2 mph 4.3 mph 86% 0 in 0 W/m2
22:19 48.2 °F 44.6 °F 29.8 in NW 6.8 mph 4.3 mph 87% 0 in 0 W/m2
22:24 48.2 °F 44.6 °F 29.8 in NW 6.8 mph 3.7 mph 88% 0 in 0 W/m2
22:29 46.4 °F 44.6 °F 29.8 in WNW 5.6 mph 4.3 mph 88% 0 in 0 W/m2
22:34 46.4 °F 44.6 °F 29.8 in WNW 5.6 mph 3.7 mph 88% 0 in 0 W/m2
22:39 46.4 °F 44.6 °F 29.8 in NNW 6.2 mph 3.7 mph 88% 0 in 0 W/m2
22:44 46.4 °F 42.8 °F 29.8 in NW 6.2 mph 3.7 mph 88% 0 in 0 W/m2
22:49 46.4 °F 42.8 °F 29.8 in NW 5 mph 3.7 mph 88% 0 in 0 W/m2
22:54 46.4 °F 42.8 °F 29.8 in NW 6.2 mph 3.7 mph 88% 0 in 0 W/m2
22:59 46.4 °F 42.8 °F 29.8 in WNW 6.8 mph 3.7 mph 88% 0 in 0 W/m2
23:04 46.4 °F 44.6 °F 29.8 in NW 5 mph 3.7 mph 89% 0 in 0 W/m2
23:09 46.4 °F 44.6 °F 29.8 in WNW 8.1 mph 4.3 mph 89% 0 in 0 W/m2
23:14 46.4 °F 42.8 °F 29.8 in WNW 7.5 mph 4.3 mph 89% 0 in 0 W/m2
23:19 46.4 °F 42.8 °F 29.8 in WNW 6.2 mph 4.3 mph 89% 0 in 0 W/m2
23:24 46.4 °F 42.8 °F 29.8 in NW 5.6 mph 3.7 mph 89% 0 in 0 W/m2
23:29 46.4 °F 42.8 °F 29.8 in WNW 3.7 mph 1.9 mph 89% 0 in 0 W/m2
23:34 46.4 °F 42.8 °F 29.8 in WNW 3.7 mph 2.5 mph 89% 0 in 0 W/m2
23:39 46.4 °F 42.8 °F 29.8 in WNW 3.7 mph 3.7 mph 89% 0 in 0 W/m2
23:44 46.4 °F 42.8 °F 29.8 in W 3.7 mph 1.9 mph 89% 0 in 0 W/m2
23:49 46.4 °F 42.8 °F 29.8 in W 3.7 mph 3.1 mph 89% 0 in 0 W/m2
23:54 46.4 °F 42.8 °F 29.8 in WNW 4.3 mph 2.5 mph 89% 0 in 0 W/m2
23:59 46.4 °F 42.8 °F 29.8 in W 3.1 mph 1.2 mph 89% 0 in 0 W/m2
Compliments of Weather Underground - 2 mb